createdAt,value
2022-11-20T00:01:07.315Z,96346.78
2022-11-20T00:03:33.657Z,96346.16
2022-11-20T00:06:03.735Z,96343.97
2022-11-20T00:08:30.157Z,96346.31
2022-11-20T00:10:56.479Z,96349.13
2022-11-20T00:13:23.061Z,96330.06
2022-11-20T00:15:49.575Z,96321.63
2022-11-20T00:18:15.890Z,96326.94
2022-11-20T00:20:42.263Z,96332.94
2022-11-20T00:23:08.587Z,96330.56
2022-11-20T00:25:35.430Z,96326.84
2022-11-20T00:28:01.882Z,96328.00
2022-11-20T00:30:28.238Z,96329.41
2022-11-20T00:32:57.139Z,96322.84
2022-11-20T00:35:23.481Z,96327.53
2022-11-20T00:37:49.909Z,96324.25
2022-11-20T00:40:16.299Z,96313.91
2022-11-20T00:42:42.624Z,96318.13
2022-11-20T00:45:09.066Z,96334.13
2022-11-20T00:47:35.370Z,96337.53
2022-11-20T00:50:01.675Z,96345.13
2022-11-20T00:52:28.064Z,96346.78
2022-11-20T00:54:54.760Z,96360.16
2022-11-20T00:57:21.091Z,96351.22
2022-11-20T00:59:47.520Z,96354.41
2022-11-20T01:02:13.903Z,96350.06
2022-11-20T01:04:40.211Z,96354.03
2022-11-20T01:07:06.569Z,96347.50
2022-11-20T01:09:32.964Z,96345.47
2022-11-20T01:12:01.401Z,96341.59
2022-11-20T01:14:28.196Z,96339.84
2022-11-20T01:16:54.515Z,96344.66
2022-11-20T01:19:22.395Z,96345.38
2022-11-20T01:21:50.453Z,96349.94
2022-11-20T01:24:18.095Z,96349.34
2022-11-20T01:26:44.930Z,96339.28
2022-11-20T01:29:15.874Z,96331.75
2022-11-20T01:31:43.362Z,96329.28
2022-11-20T01:34:17.173Z,96327.97
2022-11-20T01:36:43.903Z,96327.53
2022-11-20T01:39:14.262Z,96352.03
2022-11-20T01:41:59.499Z,96347.72
2022-11-20T01:44:44.291Z,96343.50
2022-11-20T01:47:13.837Z,96343.94
2022-11-20T01:49:43.594Z,96349.09
2022-11-20T01:52:31.408Z,96343.72
2022-11-20T01:55:04.786Z,96331.38
2022-11-20T01:57:34.208Z,96345.38
2022-11-20T02:00:02.295Z,96337.28
2022-11-20T02:02:28.982Z,96341.63
2022-11-20T02:04:57.945Z,96344.75
2022-11-20T02:07:24.655Z,96342.69
2022-11-20T02:09:57.358Z,96352.41
2022-11-20T02:12:43.635Z,96349.81
2022-11-20T02:15:10.252Z,96358.16
2022-11-20T02:17:36.762Z,96332.53
2022-11-20T02:20:05.314Z,96339.00
2022-11-20T02:22:38.951Z,96329.88
2022-11-20T02:25:07.776Z,96331.50
2022-11-20T02:27:34.241Z,96328.91
2022-11-20T02:30:05.386Z,96333.78
2022-11-20T02:32:33.401Z,96341.84
2022-11-20T02:35:06.906Z,96341.25
2022-11-20T02:37:34.994Z,96347.34
2022-11-20T02:40:01.478Z,96341.38
2022-11-20T02:42:27.830Z,96342.06
2022-11-20T02:44:54.212Z,96332.19
2022-11-20T02:47:20.559Z,96331.97
2022-11-20T02:49:46.877Z,96325.63
2022-11-20T02:52:13.403Z,96315.88
2022-11-20T02:54:39.724Z,96310.13
2022-11-20T02:57:06.049Z,96315.19
2022-11-20T02:59:32.415Z,96320.94
2022-11-20T03:01:58.819Z,96308.88
2022-11-20T03:04:25.245Z,96312.84
2022-11-20T03:06:51.578Z,96311.78
2022-11-20T03:09:19.477Z,96320.03
2022-11-20T03:11:46.060Z,96322.13
2022-11-20T03:14:12.432Z,96317.31
2022-11-20T03:16:38.746Z,96317.44
2022-11-20T03:19:05.070Z,96327.53
2022-11-20T03:21:31.411Z,96328.94
2022-11-20T03:23:57.748Z,96321.53
2022-11-20T03:26:25.188Z,96320.59
2022-11-20T03:28:53.076Z,96320.47
2022-11-20T03:31:20.789Z,96317.88
2022-11-20T03:33:47.217Z,96316.50
2022-11-20T03:36:14.692Z,96308.59
2022-11-20T03:38:41.536Z,96310.13
2022-11-20T03:41:12.307Z,96300.13
2022-11-20T03:43:39.663Z,96304.72
2022-11-20T03:46:06.117Z,96309.41
2022-11-20T03:48:32.559Z,96310.47
2022-11-20T03:51:10.905Z,96301.66
2022-11-20T03:53:37.215Z,96308.88
2022-11-20T03:56:04.097Z,96308.94
2022-11-20T03:58:30.443Z,96306.13
2022-11-20T04:00:56.781Z,96304.50
2022-11-20T04:03:23.196Z,96309.94
2022-11-20T04:05:49.565Z,96309.66
2022-11-20T04:08:15.882Z,96308.53
2022-11-20T04:10:42.212Z,96297.25
2022-11-20T04:13:08.515Z,96305.81
2022-11-20T04:15:38.337Z,96298.88
2022-11-20T04:18:04.991Z,96297.72
2022-11-20T04:20:31.319Z,96308.16
2022-11-20T04:22:57.674Z,96301.13
2022-11-20T04:25:24.054Z,96299.94
2022-11-20T04:27:50.392Z,96299.25
2022-11-20T04:30:17.152Z,96298.31
2022-11-20T04:32:49.428Z,96296.75
2022-11-20T04:35:15.824Z,96301.91
2022-11-20T04:37:42.135Z,96304.28
2022-11-20T04:40:08.647Z,96293.50
2022-11-20T04:42:35.013Z,96274.56
2022-11-20T04:45:06.671Z,96283.84
2022-11-20T04:47:33.009Z,96279.47
2022-11-20T04:49:59.404Z,96276.44
2022-11-20T04:52:25.755Z,96275.41
2022-11-20T04:54:53.858Z,96292.06
2022-11-20T04:57:20.667Z,96278.63
2022-11-20T04:59:46.994Z,96280.75
2022-11-20T05:02:13.595Z,96282.88
2022-11-20T05:04:39.959Z,96281.81
2022-11-20T05:07:06.365Z,96274.69
2022-11-20T05:09:32.812Z,96274.44
2022-11-20T05:11:59.160Z,96275.19
2022-11-20T05:14:25.493Z,96273.75
2022-11-20T05:16:51.905Z,96272.09
2022-11-20T05:19:18.309Z,96279.13
2022-11-20T05:21:44.796Z,96282.13
2022-11-20T05:24:11.243Z,96273.84
2022-11-20T05:26:37.574Z,96268.50
2022-11-20T05:29:04.159Z,96268.47
2022-11-20T05:31:30.534Z,96271.72
2022-11-20T05:33:57.415Z,96262.47
2022-11-20T05:36:23.778Z,96262.25
2022-11-20T05:38:51.036Z,96259.19
2022-11-20T05:41:24.715Z,96263.78
2022-11-20T05:43:51.099Z,96265.41
2022-11-20T05:46:28.208Z,96261.72
2022-11-20T05:48:56.247Z,96265.59
2022-11-20T05:51:22.676Z,96260.94
2022-11-20T05:53:49.136Z,96258.19
2022-11-20T05:56:19.679Z,96262.91
2022-11-20T05:58:46.618Z,96263.56
2022-11-20T06:01:14.437Z,96264.50
2022-11-20T06:03:48.873Z,96258.63
2022-11-20T06:06:16.514Z,96269.69
2022-11-20T06:08:42.943Z,96268.75
2022-11-20T06:11:10.672Z,96266.16
2022-11-20T06:13:41.860Z,96265.03
2022-11-20T06:16:09.520Z,96273.47
2022-11-20T06:18:35.969Z,96270.47
2022-11-20T06:21:02.331Z,96266.16
2022-11-20T06:23:29.379Z,96266.88
2022-11-20T06:26:10.974Z,96262.41
2022-11-20T06:28:37.323Z,96263.72
2022-11-20T06:31:03.984Z,96254.53
2022-11-20T06:33:36.282Z,96259.56
2022-11-20T06:36:08.931Z,96262.19
2022-11-20T06:38:43.438Z,96256.50
2022-11-20T06:41:14.419Z,96252.22
2022-11-20T06:43:46.926Z,96262.47
2022-11-20T06:46:13.856Z,96263.50
2022-11-20T06:48:40.533Z,96259.84
2022-11-20T06:51:07.882Z,96264.53
2022-11-20T06:53:39.390Z,96266.66
2022-11-20T06:56:06.260Z,96272.16
2022-11-20T06:58:33.674Z,96279.13
2022-11-20T07:01:00.754Z,96271.53
2022-11-20T07:03:27.253Z,96271.53
2022-11-20T07:05:55.610Z,96265.84
2022-11-20T07:08:23.341Z,96266.53
2022-11-20T07:10:49.684Z,96264.44
2022-11-20T07:13:16.007Z,96268.84
2022-11-20T07:15:42.375Z,96279.06
2022-11-20T07:18:08.794Z,96275.53
2022-11-20T07:20:35.207Z,96276.88
2022-11-20T07:23:01.566Z,96278.66
2022-11-20T07:25:30.032Z,96267.19
2022-11-20T07:27:59.722Z,96270.34
2022-11-20T07:30:33.929Z,96271.66
2022-11-20T07:33:00.249Z,96274.47
2022-11-20T07:35:26.600Z,96278.34
2022-11-20T07:37:54.961Z,96279.88
2022-11-20T07:40:21.278Z,96274.81
2022-11-20T07:42:54.930Z,96272.78
2022-11-20T07:45:22.087Z,96274.56
2022-11-20T07:47:54.449Z,96273.06
2022-11-20T07:50:21.088Z,96280.25
2022-11-20T07:52:49.643Z,96281.75
2022-11-20T07:55:16.229Z,96282.81
2022-11-20T07:57:42.842Z,96279.00
2022-11-20T08:00:10.636Z,96272.94
2022-11-20T08:02:43.180Z,96273.00
2022-11-20T08:05:10.513Z,96271.16
2022-11-20T08:07:38.722Z,96277.22
2022-11-20T08:10:07.004Z,96272.03
2022-11-20T08:12:52.123Z,96271.25
2022-11-20T08:15:19.542Z,96274.13
2022-11-20T08:18:02.063Z,96273.25
2022-11-20T08:20:32.644Z,96268.75
2022-11-20T08:23:06.709Z,96281.81
2022-11-20T08:25:33.757Z,96274.47
2022-11-20T08:28:04.196Z,96273.88
2022-11-20T08:30:36.096Z,96274.78
2022-11-20T08:33:04.706Z,96278.88
2022-11-20T08:35:34.076Z,96281.16
2022-11-20T08:38:00.456Z,96278.56
2022-11-20T08:40:27.750Z,96278.75
2022-11-20T08:42:54.134Z,96286.84
2022-11-20T08:45:23.728Z,96285.97
2022-11-20T08:47:56.505Z,96283.25
2022-11-20T08:50:22.868Z,96285.50
2022-11-20T08:52:51.247Z,96281.47
2022-11-20T08:55:17.608Z,96269.97
2022-11-20T08:57:48.099Z,96277.75
2022-11-20T09:00:18.811Z,96279.63
2022-11-20T09:02:45.111Z,96275.69
2022-11-20T09:05:12.492Z,96273.00
2022-11-20T09:07:38.840Z,96279.38
2022-11-20T09:12:52.880Z,96274.66
2022-11-20T09:15:19.919Z,96273.34
2022-11-20T09:17:56.529Z,96262.19
2022-11-20T09:20:23.277Z,96266.13
2022-11-20T09:22:49.644Z,96266.13
2022-11-20T09:25:16.057Z,96263.81
2022-11-20T09:27:46.649Z,96266.16
2022-11-20T09:30:14.964Z,96257.56
2022-11-20T09:32:41.583Z,96265.50
2022-11-20T09:35:08.820Z,96263.03
2022-11-20T09:37:35.292Z,96263.56
2022-11-20T09:40:01.875Z,96262.47
2022-11-20T09:42:52.842Z,96257.84
2022-11-20T09:45:42.428Z,96257.56
2022-11-20T09:48:17.795Z,96248.16
2022-11-20T09:50:54.619Z,96256.47
2022-11-20T09:53:41.980Z,96243.66
2022-11-20T09:56:10.446Z,96246.13
2022-11-20T09:58:42.754Z,96247.25
2022-11-20T10:01:20.657Z,96242.34
2022-11-20T10:03:49.037Z,96241.94
2022-11-20T10:06:17.979Z,96235.78
2022-11-20T10:08:48.515Z,96233.75
2022-11-20T10:11:24.516Z,96230.91
2022-11-20T10:13:58.136Z,96231.81
2022-11-20T10:16:24.488Z,96222.41
2022-11-20T10:19:03.007Z,96223.53
2022-11-20T10:21:50.024Z,96222.00
2022-11-20T10:24:32.573Z,96215.34
2022-11-20T10:27:16.731Z,96225.31
2022-11-20T10:29:46.620Z,96222.38
2022-11-20T10:32:17.624Z,96225.53
2022-11-20T10:34:54.118Z,96221.34
2022-11-20T10:37:24.439Z,96218.88
2022-11-20T10:40:04.503Z,96218.06
2022-11-20T10:42:52.241Z,96221.47
2022-11-20T10:45:48.438Z,96216.97
2022-11-20T10:48:17.783Z,96230.31
2022-11-20T10:51:07.627Z,96227.34
2022-11-20T10:53:53.400Z,96231.00
2022-11-20T10:56:50.967Z,96233.88
2022-11-20T10:59:36.304Z,96232.66
2022-11-20T11:02:03.533Z,96225.72
2022-11-20T11:04:52.741Z,96230.91
2022-11-20T11:07:24.689Z,96225.53
2022-11-20T11:10:15.701Z,96222.28
2022-11-20T11:12:44.705Z,96214.91
2022-11-20T11:15:16.313Z,96208.38
2022-11-20T11:17:48.964Z,96201.41
2022-11-20T11:20:17.656Z,96207.03
2022-11-20T11:22:54.694Z,96203.06
2022-11-20T11:25:29.943Z,96208.78
2022-11-20T11:27:59.914Z,96204.44
2022-11-20T11:30:30.978Z,96201.41
2022-11-20T11:33:19.139Z,96206.59
2022-11-20T11:35:58.352Z,96206.06
2022-11-20T11:38:42.325Z,96193.50
2022-11-20T11:41:13.738Z,96184.22
2022-11-20T11:44:12.383Z,96181.19
2022-11-20T11:46:45.055Z,96174.91
2022-11-20T11:49:11.352Z,96183.66
2022-11-20T11:52:01.736Z,96176.00
2022-11-20T11:54:30.889Z,96171.66
2022-11-20T11:57:00.368Z,96191.03
2022-11-20T11:59:29.843Z,96194.06
2022-11-20T12:01:59.478Z,96191.16
2022-11-20T12:04:31.958Z,96193.63
2022-11-20T12:10:29.269Z,96210.28
2022-11-20T12:12:59.624Z,96198.81
2022-11-20T12:15:35.276Z,96199.22
2022-11-20T12:18:02.094Z,96206.06
2022-11-20T12:20:36.198Z,96192.81
2022-11-20T12:23:17.877Z,96185.72
2022-11-20T12:25:49.001Z,96191.31
2022-11-20T12:28:30.549Z,96184.19
2022-11-20T12:31:02.668Z,96184.00
2022-11-20T12:33:52.816Z,96179.78
2022-11-20T12:36:23.396Z,96183.88
2022-11-20T12:38:51.731Z,96173.47
2022-11-20T12:41:51.804Z,96174.13
2022-11-20T12:44:52.194Z,96179.91
2022-11-20T12:47:36.825Z,96179.03
2022-11-20T12:50:09.388Z,96183.03
2022-11-20T12:52:38.014Z,96186.59
2022-11-20T12:55:14.591Z,96188.78
2022-11-20T12:57:56.135Z,96189.56
2022-11-20T13:00:30.463Z,96176.84
2022-11-20T13:02:56.769Z,96172.66
2022-11-20T13:05:26.116Z,96169.09
2022-11-20T13:07:53.924Z,96172.66
2022-11-20T13:10:32.304Z,96172.16
2022-11-20T13:13:02.692Z,96181.47
2022-11-20T13:15:41.222Z,96184.72
2022-11-20T13:18:14.269Z,96165.31
2022-11-20T13:21:00.954Z,96164.72
2022-11-20T13:23:28.602Z,96163.41
2022-11-20T13:26:14.703Z,96156.63
2022-11-20T13:28:47.156Z,96158.00
2022-11-20T13:31:29.579Z,96149.38
2022-11-20T13:33:56.457Z,96165.34
2022-11-20T13:36:28.089Z,96158.91
2022-11-20T13:38:55.795Z,96157.53
2022-11-20T13:48:40.216Z,96162.53
2022-11-20T13:51:12.448Z,96162.47
2022-11-20T13:54:09.762Z,96162.59
2022-11-20T13:56:48.353Z,96158.38
2022-11-20T14:06:29.226Z,96156.72
2022-11-20T14:08:58.121Z,96156.31
2022-11-20T14:11:50.448Z,96159.44
2022-11-20T14:14:33.295Z,96162.34
2022-11-20T14:17:22.443Z,96153.47
2022-11-20T14:19:51.456Z,96160.41
2022-11-20T14:22:26.771Z,96168.91
2022-11-20T14:25:06.980Z,96164.25
2022-11-20T14:30:56.143Z,96182.56
2022-11-20T14:33:25.921Z,96173.81
2022-11-20T14:35:56.632Z,96179.72
2022-11-20T14:38:25.682Z,96168.38
2022-11-20T14:40:52.096Z,96167.56
2022-11-20T14:43:31.695Z,96167.97
2022-11-20T14:46:23.261Z,96174.53
2022-11-20T14:48:51.334Z,96180.38
2022-11-20T14:51:24.804Z,96182.03
2022-11-20T14:53:57.237Z,96177.69
2022-11-20T14:56:25.024Z,96183.41
2022-11-20T14:58:58.704Z,96181.47
2022-11-20T15:01:39.224Z,96186.00
2022-11-20T15:04:18.203Z,96180.94
2022-11-20T15:06:52.102Z,96186.53
2022-11-20T15:09:31.283Z,96184.19
2022-11-20T15:12:02.546Z,96182.03
2022-11-20T15:14:31.965Z,96181.19
2022-11-20T15:17:12.551Z,96174.13
2022-11-20T15:19:39.264Z,96174.78
2022-11-20T15:22:11.052Z,96171.00
2022-11-20T15:24:37.748Z,96169.88
2022-11-20T15:27:04.107Z,96174.09
2022-11-20T15:29:31.099Z,96176.84
2022-11-20T15:31:57.787Z,96173.28
2022-11-20T15:34:28.023Z,96177.94
2022-11-20T15:36:55.673Z,96170.84
2022-11-20T15:39:22.291Z,96164.16
2022-11-20T15:41:57.742Z,96167.31
2022-11-20T15:44:24.538Z,96171.41
2022-11-20T15:47:05.985Z,96166.63
2022-11-20T15:49:32.925Z,96167.16
2022-11-20T15:52:14.314Z,96171.94
2022-11-20T15:54:47.825Z,96173.28
2022-11-20T15:57:14.145Z,96172.75
2022-11-20T15:59:42.280Z,96177.94
2022-11-20T16:02:19.102Z,96173.94
2022-11-20T16:04:46.915Z,96162.78
2022-11-20T16:07:14.683Z,96175.75
2022-11-20T16:09:41.494Z,96170.56
2022-11-20T16:16:12.008Z,96174.53
2022-11-20T16:19:13.968Z,96168.66
2022-11-20T16:21:48.835Z,96170.81
2022-11-20T16:24:23.273Z,96172.31
2022-11-20T16:26:54.975Z,96171.09
2022-11-20T16:29:45.399Z,96171.66
2022-11-20T16:32:18.811Z,96164.41
2022-11-20T16:34:53.112Z,96162.09
2022-11-20T16:37:19.426Z,96156.63
2022-11-20T16:39:45.736Z,96163.84
2022-11-20T16:42:14.139Z,96160.16
2022-11-20T16:51:55.979Z,96163.44
2022-11-20T16:57:52.608Z,96159.09
2022-11-20T17:00:38.907Z,96152.81
2022-11-20T17:03:07.943Z,96149.25
2022-11-20T17:06:02.045Z,96156.75
2022-11-20T17:08:34.595Z,96152.22
2022-11-20T17:11:05.486Z,96157.69
2022-11-20T17:13:40.685Z,96162.06
2022-11-20T17:16:11.236Z,96167.25
2022-11-20T17:18:58.325Z,96161.25
2022-11-20T17:25:34.475Z,96145.28
2022-11-20T17:28:00.787Z,96140.38
2022-11-20T17:31:06.137Z,96146.00
2022-11-20T17:36:55.432Z,96146.00
2022-11-20T17:39:21.756Z,96144.91
2022-11-20T17:42:11.949Z,96138.59
2022-11-20T17:45:07.252Z,96141.66
2022-11-20T17:47:35.006Z,96139.19
2022-11-20T17:50:01.356Z,96135.91
2022-11-20T17:52:27.802Z,96137.28
2022-11-20T17:54:55.981Z,96137.03
2022-11-20T17:57:56.521Z,96136.72
2022-11-20T18:00:23.761Z,96126.75
2022-11-20T18:02:50.187Z,96135.38
2022-11-20T18:05:16.545Z,96137.56
2022-11-20T18:07:43.058Z,96132.50
2022-11-20T18:10:09.856Z,96128.69
2022-11-20T18:12:36.440Z,96119.25
2022-11-20T18:15:02.870Z,96111.84
2022-11-20T18:17:29.268Z,96097.66
2022-11-20T18:20:21.655Z,96096.16
2022-11-20T18:22:43.077Z,96093.88
2022-11-20T18:25:09.511Z,96088.13
2022-11-20T18:27:36.044Z,96095.56
2022-11-20T18:30:24.583Z,96088.75
2022-11-20T18:32:50.982Z,96080.00
2022-11-20T18:35:17.304Z,96079.22
2022-11-20T18:38:22.736Z,96076.75
2022-11-20T18:40:49.043Z,96085.63
2022-11-20T18:43:34.028Z,96087.13
2022-11-20T18:46:03.883Z,96089.97
2022-11-20T18:48:33.336Z,96087.53
2022-11-20T18:51:08.726Z,96081.94
2022-11-20T18:53:36.003Z,96072.13
2022-11-20T18:56:09.320Z,96067.75
2022-11-20T18:58:37.488Z,96059.84
2022-11-20T19:01:15.108Z,96063.66
2022-11-20T19:03:42.924Z,96058.88
2022-11-20T19:06:15.651Z,96061.38
2022-11-20T19:09:10.496Z,96058.81
2022-11-20T19:11:37.689Z,96063.69
2022-11-20T19:14:06.315Z,96066.97
2022-11-20T19:16:32.965Z,96057.38
2022-11-20T19:19:03.226Z,96055.22
2022-11-20T19:21:30.481Z,96057.13
2022-11-20T19:23:58.342Z,96050.56
2022-11-20T19:26:24.964Z,96051.41
2022-11-20T19:28:51.417Z,96039.13
2022-11-20T19:31:24.684Z,96042.84
2022-11-20T19:33:54.929Z,96037.66
2022-11-20T19:36:25.291Z,96039.03
2022-11-20T19:38:52.068Z,96039.16
2022-11-20T19:41:19.922Z,96029.09
2022-11-20T19:43:49.922Z,96022.13
2022-11-20T19:46:29.227Z,96028.78
2022-11-20T19:48:56.143Z,96020.63
2022-11-20T19:51:35.010Z,96022.81
2022-11-20T19:54:01.878Z,96010.41
2022-11-20T19:56:29.832Z,96015.72
2022-11-20T19:59:08.349Z,96019.34
2022-11-20T20:01:35.337Z,96008.03
2022-11-20T20:04:05.867Z,96011.31
2022-11-20T20:06:33.245Z,96008.03
2022-11-20T20:09:01.683Z,96006.28
2022-11-20T20:11:28.886Z,96009.94
2022-11-20T20:13:56.379Z,96010.63
2022-11-20T20:16:23.763Z,96002.31
2022-11-20T20:18:53.896Z,96010.22
2022-11-20T20:21:43.130Z,96004.78
2022-11-20T20:24:09.719Z,96010.09
2022-11-20T20:27:14.071Z,96008.34
2022-11-20T20:29:40.421Z,96000.69
2022-11-20T20:32:06.727Z,96003.94
2022-11-20T20:34:33.068Z,95990.13
2022-11-20T20:36:59.879Z,95978.53
2022-11-20T20:39:26.378Z,95992.47
2022-11-20T20:42:12.964Z,95978.00
2022-11-20T20:44:57.882Z,95976.91
2022-11-20T20:48:06.438Z,95979.63
2022-11-20T20:50:32.792Z,95976.78
2022-11-20T20:52:59.108Z,95973.63
2022-11-20T20:55:25.611Z,95971.88
2022-11-20T20:57:53.615Z,95966.38
2022-11-20T21:00:19.955Z,95967.78
2022-11-20T21:02:46.324Z,95965.13
2022-11-20T21:08:49.332Z,95958.06
2022-11-20T21:11:17.040Z,95954.75
2022-11-20T21:13:44.633Z,95958.19
2022-11-20T21:16:11.858Z,95956.19
2022-11-20T21:19:01.183Z,95963.25
2022-11-20T21:21:46.251Z,95956.94
2022-11-20T21:24:12.572Z,95947.16
2022-11-20T21:26:38.904Z,95949.75
2022-11-20T21:29:05.217Z,95937.19
2022-11-20T21:31:31.616Z,95945.22
2022-11-20T21:33:58.609Z,95938.59
2022-11-20T21:36:26.919Z,95943.81
2022-11-20T21:38:56.453Z,95934.19
2022-11-20T21:41:23.832Z,95934.84
2022-11-20T21:44:29.555Z,95931.06
2022-11-20T21:46:46.006Z,95926.63
2022-11-20T21:49:14.580Z,95921.31
2022-11-20T21:51:41.086Z,95916.22
2022-11-20T21:54:07.617Z,95921.41
2022-11-20T21:56:33.980Z,95922.16
2022-11-20T21:59:00.526Z,95916.22
2022-11-20T22:01:34.710Z,95916.34
2022-11-20T22:04:02.196Z,95921.06
2022-11-20T22:06:33.006Z,95914.78
2022-11-20T22:08:59.854Z,95911.97
2022-11-20T22:11:26.218Z,95906.34
2022-11-20T22:14:18.845Z,95908.50
2022-11-20T22:16:45.214Z,95900.28
2022-11-20T22:22:33.393Z,95891.75
2022-11-20T22:24:59.939Z,95885.06
2022-11-20T22:27:26.247Z,95893.81
2022-11-20T22:29:59.607Z,95879.75
2022-11-20T22:32:25.982Z,95882.56
2022-11-20T22:35:20.287Z,95884.19
2022-11-20T22:37:49.591Z,95873.50
2022-11-20T22:40:16.514Z,95877.91
2022-11-20T22:42:46.225Z,95868.88
2022-11-20T22:45:15.928Z,95862.44
2022-11-20T22:47:42.564Z,95863.91
2022-11-20T22:50:09.058Z,95859.06
2022-11-20T22:52:35.373Z,95854.56
2022-11-20T22:55:01.682Z,95850.63
2022-11-20T22:57:27.987Z,95848.78
2022-11-20T22:59:54.364Z,95851.09
2022-11-20T23:02:20.801Z,95848.69
2022-11-20T23:04:47.137Z,95846.03
2022-11-20T23:07:13.468Z,95844.09
2022-11-20T23:09:39.860Z,95852.63
2022-11-20T23:12:06.451Z,95844.94
2022-11-20T23:14:33.343Z,95847.09
2022-11-20T23:17:02.929Z,95841.91
2022-11-20T23:19:29.258Z,95837.22
2022-11-20T23:21:55.577Z,95836.53
2022-11-20T23:24:21.960Z,95833.66
2022-11-20T23:26:48.344Z,95833.06
2022-11-20T23:29:15.681Z,95831.72
2022-11-20T23:31:42.168Z,95835.22
2022-11-20T23:34:08.516Z,95828.72
2022-11-20T23:36:34.968Z,95831.06
2022-11-20T23:39:01.292Z,95829.19
2022-11-20T23:41:27.848Z,95819.34
2022-11-20T23:43:54.193Z,95826.84
2022-11-20T23:46:22.582Z,95822.38
2022-11-20T23:48:49.001Z,95813.06
2022-11-20T23:51:15.434Z,95813.19
2022-11-20T23:53:41.755Z,95814.53
2022-11-20T23:56:14.649Z,95808.75
2022-11-20T23:58:41.459Z,95807.78
